sensor_id;sensor_type;location;lat;lon;timestamp;pressure;altitude;pressure_sealevel;temperature;humidity
55347;BME280;41218;55.700;38.270;2022-08-19T00:03:24;100473.63;;;20.90;50.76
55347;BME280;41218;55.700;38.270;2022-08-19T00:08:28;100472.09;;;20.85;50.59
55347;BME280;41218;55.700;38.270;2022-08-19T00:13:31;100459.91;;;20.68;50.65
55347;BME280;41218;55.700;38.270;2022-08-19T00:18:33;100498.19;;;20.86;50.59
55347;BME280;41218;55.700;38.270;2022-08-19T00:23:37;100493.78;;;20.85;50.42
55347;BME280;41218;55.700;38.270;2022-08-19T00:28:38;100493.41;;;20.83;50.37
55347;BME280;41218;55.700;38.270;2022-08-19T00:33:39;100482.75;;;20.70;50.29
55347;BME280;41218;55.700;38.270;2022-08-19T00:38:47;100496.41;;;20.68;50.35
55347;BME280;41218;55.700;38.270;2022-08-19T00:44:15;100512.41;;;20.71;50.34
55347;BME280;41218;55.700;38.270;2022-08-19T00:49:23;100498.66;;;20.46;50.62
55347;BME280;41218;55.700;38.270;2022-08-19T00:54:25;100495.00;;;20.49;50.30
55347;BME280;41218;55.700;38.270;2022-08-19T00:59:27;100523.75;;;20.64;50.47
55347;BME280;41218;55.700;38.270;2022-08-19T01:04:28;100483.56;;;20.33;50.35
55347;BME280;41218;55.700;38.270;2022-08-19T01:09:32;100516.16;;;20.57;50.29
55347;BME280;41218;55.700;38.270;2022-08-19T01:14:34;100484.44;;;20.30;50.54
55347;BME280;41218;55.700;38.270;2022-08-19T01:19:39;100517.47;;;20.49;50.65
55347;BME280;41218;55.700;38.270;2022-08-19T01:24:41;100522.72;;;20.47;50.45
55347;BME280;41218;55.700;38.270;2022-08-19T01:29:42;100485.28;;;20.23;50.40
55347;BME280;41218;55.700;38.270;2022-08-19T01:34:43;100492.53;;;20.20;50.54
55347;BME280;41218;55.700;38.270;2022-08-19T01:39:50;100521.63;;;20.37;50.89
55347;BME280;41218;55.700;38.270;2022-08-19T01:44:50;100480.72;;;20.02;50.66
55347;BME280;41218;55.700;38.270;2022-08-19T01:49:51;100540.09;;;20.35;50.74
55347;BME280;41218;55.700;38.270;2022-08-19T01:54:52;100533.69;;;20.34;50.53
55347;BME280;41218;55.700;38.270;2022-08-19T01:59:55;100540.50;;;20.33;50.67
55347;BME280;41218;55.700;38.270;2022-08-19T02:04:57;100544.53;;;20.32;50.49
55347;BME280;41218;55.700;38.270;2022-08-19T02:09:57;100499.88;;;20.07;50.58
55347;BME280;41218;55.700;38.270;2022-08-19T02:15:04;100547.41;;;20.25;50.96
55347;BME280;41218;55.700;38.270;2022-08-19T02:20:25;100517.94;;;20.06;50.79
55347;BME280;41218;55.700;38.270;2022-08-19T02:25:28;100491.72;;;19.82;50.96
55347;BME280;41218;55.700;38.270;2022-08-19T02:30:49;100510.13;;;19.87;51.09
55347;BME280;41218;55.700;38.270;2022-08-19T02:35:50;100541.19;;;20.07;51.02
55347;BME280;41218;55.700;38.270;2022-08-19T02:40:59;100545.66;;;20.00;51.48
55347;BME280;41218;55.700;38.270;2022-08-19T02:46:01;100516.59;;;19.80;51.28
55347;BME280;41218;55.700;38.270;2022-08-19T02:51:19;100552.56;;;19.92;51.67
55347;BME280;41218;55.700;38.270;2022-08-19T02:56:34;100550.97;;;19.91;51.67
55347;BME280;41218;55.700;38.270;2022-08-19T03:01:36;100521.50;;;19.65;51.58
55347;BME280;41218;55.700;38.270;2022-08-19T03:06:38;100557.41;;;19.85;51.77
55347;BME280;41218;55.700;38.270;2022-08-19T03:11:39;100528.34;;;19.60;52.00
55347;BME280;41218;55.700;38.270;2022-08-19T03:16:43;100567.09;;;19.76;52.44
55347;BME280;41218;55.700;38.270;2022-08-19T03:21:44;100566.31;;;19.76;52.24
55347;BME280;41218;55.700;38.270;2022-08-19T03:26:49;100546.75;;;19.65;52.54
55347;BME280;41218;55.700;38.270;2022-08-19T03:31:59;100533.13;;;19.64;52.41
55347;BME280;41218;55.700;38.270;2022-08-19T03:37:08;100512.38;;;19.54;52.69
55347;BME280;41218;55.700;38.270;2022-08-19T03:42:09;100536.31;;;19.69;52.44
55347;BME280;41218;55.700;38.270;2022-08-19T03:47:10;100519.13;;;19.60;52.65
55347;BME280;41218;55.700;38.270;2022-08-19T03:52:36;100528.72;;;19.62;53.28
55347;BME280;41218;55.700;38.270;2022-08-19T03:57:40;100557.03;;;19.86;53.04
55347;BME280;41218;55.700;38.270;2022-08-19T04:08:05;100562.53;;;19.97;53.39
55347;BME280;41218;55.700;38.270;2022-08-19T04:13:06;100538.56;;;19.89;52.94
55347;BME280;41218;55.700;38.270;2022-08-19T04:18:09;100508.19;;;19.80;53.29
55347;BME280;41218;55.700;38.270;2022-08-19T04:23:21;100520.56;;;19.83;53.17
55347;BME280;41218;55.700;38.270;2022-08-19T04:28:23;100518.84;;;19.96;53.06
55347;BME280;41218;55.700;38.270;2022-08-19T04:33:24;100543.97;;;20.10;53.12
55347;BME280;41218;55.700;38.270;2022-08-19T04:38:28;100533.56;;;20.07;53.29
55347;BME280;41218;55.700;38.270;2022-08-19T04:43:51;100574.97;;;20.37;53.08
55347;BME280;41218;55.700;38.270;2022-08-19T04:48:51;100538.59;;;20.27;52.92
55347;BME280;41218;55.700;38.270;2022-08-19T04:53:53;100543.66;;;20.39;52.94
55347;BME280;41218;55.700;38.270;2022-08-19T04:58:59;100549.16;;;20.50;53.04
55347;BME280;41218;55.700;38.270;2022-08-19T05:04:12;100558.28;;;20.61;52.91
55347;BME280;41218;55.700;38.270;2022-08-19T05:09:22;100571.34;;;20.78;52.80
55347;BME280;41218;55.700;38.270;2022-08-19T05:14:23;100531.00;;;20.61;52.80
55347;BME280;41218;55.700;38.270;2022-08-19T05:19:24;100555.91;;;20.90;52.39
55347;BME280;41218;55.700;38.270;2022-08-19T05:24:43;100567.66;;;21.12;52.61
55347;BME280;41218;55.700;38.270;2022-08-19T05:30:11;100567.94;;;21.21;52.62
55347;BME280;41218;55.700;38.270;2022-08-19T05:35:12;100526.50;;;20.98;52.66
55347;BME280;41218;55.700;38.270;2022-08-19T05:40:12;100573.78;;;21.34;52.23
55347;BME280;41218;55.700;38.270;2022-08-19T05:45:13;100537.50;;;21.16;52.63
55347;BME280;41218;55.700;38.270;2022-08-19T05:50:14;100521.91;;;21.12;52.49
55347;BME280;41218;55.700;38.270;2022-08-19T05:55:15;100530.44;;;21.32;52.40
55347;BME280;41218;55.700;38.270;2022-08-19T06:00:16;100546.75;;;21.44;52.30
55347;BME280;41218;55.700;38.270;2022-08-19T06:05:16;100540.84;;;21.62;52.07
55347;BME280;41218;55.700;38.270;2022-08-19T06:10:17;100569.66;;;21.93;51.95
55347;BME280;41218;55.700;38.270;2022-08-19T06:15:18;100577.00;;;22.11;51.84
55347;BME280;41218;55.700;38.270;2022-08-19T06:20:18;100552.47;;;22.11;51.30
55347;BME280;41218;55.700;38.270;2022-08-19T06:25:21;100576.94;;;22.38;51.18
55347;BME280;41218;55.700;38.270;2022-08-19T06:30:24;100569.66;;;22.40;50.69
55347;BME280;41218;55.700;38.270;2022-08-19T06:35:25;100556.06;;;22.35;50.82
55347;BME280;41218;55.700;38.270;2022-08-19T06:40:27;100580.22;;;22.56;50.32
55347;BME280;41218;55.700;38.270;2022-08-19T06:45:28;100567.44;;;22.52;50.31
55347;BME280;41218;55.700;38.270;2022-08-19T06:50:39;100577.75;;;22.58;50.42
55347;BME280;41218;55.700;38.270;2022-08-19T06:55:42;100585.91;;;22.73;49.99
55347;BME280;41218;55.700;38.270;2022-08-19T07:00:46;100569.88;;;22.70;50.07
55347;BME280;41218;55.700;38.270;2022-08-19T07:05:47;100557.84;;;22.69;49.97
55347;BME280;41218;55.700;38.270;2022-08-19T07:10:47;100579.75;;;23.02;49.64
55347;BME280;41218;55.700;38.270;2022-08-19T07:15:49;100555.56;;;23.00;50.04
55347;BME280;41218;55.700;38.270;2022-08-19T07:20:50;100569.56;;;23.24;49.51
55347;BME280;41218;55.700;38.270;2022-08-19T07:25:51;100589.28;;;23.44;49.31
55347;BME280;41218;55.700;38.270;2022-08-19T07:30:54;100551.59;;;23.34;48.32
55347;BME280;41218;55.700;38.270;2022-08-19T07:35:58;100573.13;;;23.61;48.08
55347;BME280;41218;55.700;38.270;2022-08-19T07:41:00;100585.09;;;23.85;47.60
55347;BME280;41218;55.700;38.270;2022-08-19T07:46:01;100583.41;;;23.88;47.41
55347;BME280;41218;55.700;38.270;2022-08-19T07:51:10;100607.13;;;24.07;46.51
55347;BME280;41218;55.700;38.270;2022-08-19T07:56:14;100587.38;;;23.90;46.64
55347;BME280;41218;55.700;38.270;2022-08-19T08:01:19;100557.66;;;23.86;46.44
55347;BME280;41218;55.700;38.270;2022-08-19T08:06:26;100591.94;;;24.17;46.33
55347;BME280;41218;55.700;38.270;2022-08-19T08:12:10;100621.22;;;24.39;46.30
55347;BME280;41218;55.700;38.270;2022-08-19T08:17:15;100603.75;;;24.28;45.96
55347;BME280;41218;55.700;38.270;2022-08-19T08:22:19;100576.97;;;24.33;46.32
55347;BME280;41218;55.700;38.270;2022-08-19T08:27:42;100618.16;;;24.63;45.45
55347;BME280;41218;55.700;38.270;2022-08-19T08:32:47;100630.16;;;24.67;45.42
55347;BME280;41218;55.700;38.270;2022-08-19T08:53:46;100582.94;;;24.68;43.17
55347;BME280;41218;55.700;38.270;2022-08-19T09:04:22;100635.25;;;25.02;41.61
55347;BME280;41218;55.700;38.270;2022-08-19T09:09:35;100609.19;;;24.81;39.33
55347;BME280;41218;55.700;38.270;2022-08-19T09:14:50;100610.53;;;24.76;39.23
55347;BME280;41218;55.700;38.270;2022-08-19T09:19:56;100621.69;;;24.96;39.35
55347;BME280;41218;55.700;38.270;2022-08-19T09:24:57;100631.78;;;25.10;39.32
55347;BME280;41218;55.700;38.270;2022-08-19T09:29:58;100622.72;;;25.03;38.72
55347;BME280;41218;55.700;38.270;2022-08-19T09:35:02;100590.88;;;24.86;37.99
55347;BME280;41218;55.700;38.270;2022-08-19T09:40:03;100644.81;;;25.21;37.50
55347;BME280;41218;55.700;38.270;2022-08-19T09:45:05;100616.81;;;24.97;36.47
55347;BME280;41218;55.700;38.270;2022-08-19T09:50:08;100632.25;;;25.09;35.50
55347;BME280;41218;55.700;38.270;2022-08-19T09:55:13;100635.16;;;25.05;35.51
55347;BME280;41218;55.700;38.270;2022-08-19T10:00:14;100633.69;;;25.01;35.58
55347;BME280;41218;55.700;38.270;2022-08-19T10:05:25;100643.06;;;24.97;35.09
55347;BME280;41218;55.700;38.270;2022-08-19T10:10:54;100652.44;;;24.94;35.30
55347;BME280;41218;55.700;38.270;2022-08-19T10:16:12;100637.97;;;24.92;34.31
55347;BME280;41218;55.700;38.270;2022-08-19T10:21:25;100678.69;;;25.24;34.77
55347;BME280;41218;55.700;38.270;2022-08-19T10:26:33;100656.56;;;25.06;34.45
55347;BME280;41218;55.700;38.270;2022-08-19T10:31:34;100636.72;;;24.93;34.93
55347;BME280;41218;55.700;38.270;2022-08-19T10:36:36;100640.88;;;24.89;34.62
55347;BME280;41218;55.700;38.270;2022-08-19T10:41:38;100638.31;;;24.94;34.88
55347;BME280;41218;55.700;38.270;2022-08-19T10:46:43;100655.31;;;25.07;34.14
55347;BME280;41218;55.700;38.270;2022-08-19T10:51:50;100657.59;;;25.12;34.18
55347;BME280;41218;55.700;38.270;2022-08-19T10:57:24;100670.53;;;25.26;34.80
55347;BME280;41218;55.700;38.270;2022-08-19T11:07:50;100636.34;;;25.21;34.88
55347;BME280;41218;55.700;38.270;2022-08-19T11:12:51;100655.41;;;25.33;35.38
55347;BME280;41218;55.700;38.270;2022-08-19T11:17:55;100676.16;;;25.55;35.52
55347;BME280;41218;55.700;38.270;2022-08-19T11:22:57;100675.13;;;25.62;35.66
55347;BME280;41218;55.700;38.270;2022-08-19T11:28:00;100639.44;;;25.39;35.57
55347;BME280;41218;55.700;38.270;2022-08-19T11:33:07;100665.94;;;25.71;36.01
55347;BME280;41218;55.700;38.270;2022-08-19T11:38:11;100692.13;;;25.88;36.13
55347;BME280;41218;55.700;38.270;2022-08-19T11:43:14;100661.19;;;25.81;35.14
55347;BME280;41218;55.700;38.270;2022-08-19T11:48:15;100633.13;;;25.73;35.53
55347;BME280;41218;55.700;38.270;2022-08-19T11:53:19;100638.19;;;25.78;35.82
55347;BME280;41218;55.700;38.270;2022-08-19T11:58:20;100620.78;;;25.80;35.83
55347;BME280;41218;55.700;38.270;2022-08-19T12:03:21;100629.16;;;25.84;36.17
55347;BME280;41218;55.700;38.270;2022-08-19T12:08:25;100649.31;;;25.98;36.08
55347;BME280;41218;55.700;38.270;2022-08-19T12:13:30;100648.28;;;26.05;35.85
55347;BME280;41218;55.700;38.270;2022-08-19T12:18:30;100633.34;;;26.05;35.86
55347;BME280;41218;55.700;38.270;2022-08-19T12:23:31;100617.28;;;26.02;35.89
55347;BME280;41218;55.700;38.270;2022-08-19T12:28:32;100642.28;;;26.16;35.99
55347;BME280;41218;55.700;38.270;2022-08-19T12:33:33;100622.91;;;26.14;35.72
55347;BME280;41218;55.700;38.270;2022-08-19T12:38:34;100646.69;;;26.17;35.67
55347;BME280;41218;55.700;38.270;2022-08-19T12:43:36;100644.06;;;26.23;35.56
55347;BME280;41218;55.700;38.270;2022-08-19T12:48:38;100615.28;;;26.11;35.45
55347;BME280;41218;55.700;38.270;2022-08-19T12:53:42;100595.72;;;26.04;35.79
55347;BME280;41218;55.700;38.270;2022-08-19T12:58:45;100604.19;;;26.17;35.84
55347;BME280;41218;55.700;38.270;2022-08-19T13:03:49;100600.91;;;26.18;36.02
55347;BME280;41218;55.700;38.270;2022-08-19T13:08:55;100593.97;;;26.19;36.24
55347;BME280;41218;55.700;38.270;2022-08-19T13:14:02;100587.41;;;26.23;36.20
55347;BME280;41218;55.700;38.270;2022-08-19T13:19:04;100611.69;;;26.46;36.04
55347;BME280;41218;55.700;38.270;2022-08-19T13:24:05;100621.19;;;26.52;36.11
55347;BME280;41218;55.700;38.270;2022-08-19T13:29:06;100633.75;;;26.64;36.00
55347;BME280;41218;55.700;38.270;2022-08-19T13:34:31;100625.63;;;26.53;36.06
55347;BME280;41218;55.700;38.270;2022-08-19T13:39:34;100603.22;;;26.33;36.32
55347;BME280;41218;55.700;38.270;2022-08-19T13:44:37;100625.53;;;26.44;36.24
55347;BME280;41218;55.700;38.270;2022-08-19T13:49:41;100638.00;;;26.46;36.58
55347;BME280;41218;55.700;38.270;2022-08-19T13:54:42;100663.13;;;26.57;36.53
55347;BME280;41218;55.700;38.270;2022-08-19T13:59:44;100664.84;;;26.54;36.23
55347;BME280;41218;55.700;38.270;2022-08-19T14:04:44;100632.75;;;26.23;36.41
55347;BME280;41218;55.700;38.270;2022-08-19T14:09:45;100664.56;;;26.27;36.72
55347;BME280;41218;55.700;38.270;2022-08-19T14:14:46;100621.78;;;25.99;36.68
55347;BME280;41218;55.700;38.270;2022-08-19T14:19:47;100663.69;;;26.17;36.89
55347;BME280;41218;55.700;38.270;2022-08-19T14:24:48;100645.13;;;25.90;36.94
55347;BME280;41218;55.700;38.270;2022-08-19T14:29:53;100631.19;;;25.70;36.76
55347;BME280;41218;55.700;38.270;2022-08-19T14:34:53;100667.44;;;25.88;37.29
55347;BME280;41218;55.700;38.270;2022-08-19T14:39:54;100635.84;;;25.64;37.34
55347;BME280;41218;55.700;38.270;2022-08-19T14:44:59;100626.09;;;25.52;37.38
55347;BME280;41218;55.700;38.270;2022-08-19T14:50:00;100662.56;;;25.63;37.49
55347;BME280;41218;55.700;38.270;2022-08-19T14:55:01;100635.47;;;25.36;37.56
55347;BME280;41218;55.700;38.270;2022-08-19T15:00:06;100636.47;;;25.30;37.46
55347;BME280;41218;55.700;38.270;2022-08-19T15:05:08;100677.84;;;25.53;37.63
55347;BME280;41218;55.700;38.270;2022-08-19T15:10:11;100673.53;;;25.48;37.38
55347;BME280;41218;55.700;38.270;2022-08-19T15:15:14;100678.63;;;25.41;37.54
55347;BME280;41218;55.700;38.270;2022-08-19T15:20:19;100682.88;;;25.32;37.58
55347;BME280;41218;55.700;38.270;2022-08-19T15:25:20;100675.41;;;25.26;37.52
55347;BME280;41218;55.700;38.270;2022-08-19T15:30:26;100647.59;;;24.95;37.70
55347;BME280;41218;55.700;38.270;2022-08-19T15:35:27;100658.44;;;24.96;37.51
55347;BME280;41218;55.700;38.270;2022-08-19T15:40:28;100679.47;;;24.95;37.63
55347;BME280;41218;55.700;38.270;2022-08-19T15:45:29;100663.47;;;24.76;37.82
55347;BME280;41218;55.700;38.270;2022-08-19T15:50:33;100719.50;;;24.94;37.58
55347;BME280;41218;55.700;38.270;2022-08-19T15:55:41;100674.13;;;24.55;38.12
55347;BME280;41218;55.700;38.270;2022-08-19T16:00:42;100696.97;;;24.61;38.19
55347;BME280;41218;55.700;38.270;2022-08-19T16:06:01;100701.47;;;24.58;38.70
55347;BME280;41218;55.700;38.270;2022-08-19T16:11:22;100700.56;;;24.45;39.06
55347;BME280;41218;55.700;38.270;2022-08-19T16:16:27;100731.66;;;24.45;38.79
55347;BME280;41218;55.700;38.270;2022-08-19T16:21:29;100757.44;;;24.47;38.66
55347;BME280;41218;55.700;38.270;2022-08-19T16:26:33;100754.09;;;24.36;38.59
55347;BME280;41218;55.700;38.270;2022-08-19T16:31:34;100753.03;;;24.30;39.52
55347;BME280;41218;55.700;38.270;2022-08-19T16:36:35;100742.94;;;24.12;39.70
55347;BME280;41218;55.700;38.270;2022-08-19T16:41:39;100713.63;;;23.90;40.35
55347;BME280;41218;55.700;38.270;2022-08-19T16:46:41;100761.66;;;24.06;40.33
55347;BME280;41218;55.700;38.270;2022-08-19T16:51:41;100774.63;;;24.04;40.18
55347;BME280;41218;55.700;38.270;2022-08-19T16:56:44;100752.22;;;23.76;40.58
55347;BME280;41218;55.700;38.270;2022-08-19T17:01:45;100795.78;;;23.95;40.86
55347;BME280;41218;55.700;38.270;2022-08-19T17:06:45;100775.72;;;23.70;41.17
55347;BME280;41218;55.700;38.270;2022-08-19T17:11:46;100809.53;;;23.73;41.51
55347;BME280;41218;55.700;38.270;2022-08-19T17:16:47;100806.22;;;23.58;42.21
55347;BME280;41218;55.700;38.270;2022-08-19T17:21:50;100756.00;;;23.10;42.36
55347;BME280;41218;55.700;38.270;2022-08-19T17:26:51;100818.44;;;23.32;42.57
55347;BME280;41218;55.700;38.270;2022-08-19T17:31:52;100809.38;;;23.20;42.65
55347;BME280;41218;55.700;38.270;2022-08-19T17:36:53;100772.97;;;22.83;43.05
55347;BME280;41218;55.700;38.270;2022-08-19T17:41:58;100770.38;;;22.68;42.65
55347;BME280;41218;55.700;38.270;2022-08-19T17:46:59;100787.34;;;22.65;43.06
55347;BME280;41218;55.700;38.270;2022-08-19T17:52:11;100765.13;;;22.47;42.92
55347;BME280;41218;55.700;38.270;2022-08-19T17:57:11;100810.03;;;22.57;42.80
55347;BME280;41218;55.700;38.270;2022-08-19T18:02:21;100771.53;;;22.20;42.97
55347;BME280;41218;55.700;38.270;2022-08-19T18:07:22;100776.41;;;22.16;43.26
55347;BME280;41218;55.700;38.270;2022-08-19T18:12:25;100777.31;;;22.09;42.63
55347;BME280;41218;55.700;38.270;2022-08-19T18:17:26;100782.25;;;22.01;42.74
55347;BME280;41218;55.700;38.270;2022-08-19T18:22:32;100826.19;;;22.26;43.38
55347;BME280;41218;55.700;38.270;2022-08-19T18:27:35;100825.94;;;22.13;43.05
55347;BME280;41218;55.700;38.270;2022-08-19T18:32:37;100780.88;;;21.86;42.56
55347;BME280;41218;55.700;38.270;2022-08-19T18:37:45;100782.56;;;21.80;41.37
55347;BME280;41218;55.700;38.270;2022-08-19T18:42:53;100816.19;;;21.91;42.56
55347;BME280;41218;55.700;38.270;2022-08-19T18:48:20;100787.53;;;21.69;42.88
55347;BME280;41218;55.700;38.270;2022-08-19T18:53:41;100796.00;;;21.65;43.00
55347;BME280;41218;55.700;38.270;2022-08-19T18:58:43;100771.78;;;21.37;42.55
55347;BME280;41218;55.700;38.270;2022-08-19T19:03:51;100819.53;;;21.48;42.65
55347;BME280;41218;55.700;38.270;2022-08-19T19:08:53;100782.97;;;21.06;43.13
55347;BME280;41218;55.700;38.270;2022-08-19T19:13:57;100786.97;;;21.09;43.22
55347;BME280;41218;55.700;38.270;2022-08-19T19:19:01;100791.03;;;21.04;43.22
55347;BME280;41218;55.700;38.270;2022-08-19T19:24:10;100788.28;;;20.97;43.23
55347;BME280;41218;55.700;38.270;2022-08-19T19:29:13;100776.75;;;20.84;43.55
55347;BME280;41218;55.700;38.270;2022-08-19T19:34:14;100787.59;;;20.86;43.71
55347;BME280;41218;55.700;38.270;2022-08-19T19:39:15;100825.19;;;21.03;43.59
55347;BME280;41218;55.700;38.270;2022-08-19T19:44:16;100786.06;;;20.77;43.87
55347;BME280;41218;55.700;38.270;2022-08-19T19:49:19;100833.66;;;20.95;44.04
55347;BME280;41218;55.700;38.270;2022-08-19T19:54:20;100838.88;;;20.97;43.85
55347;BME280;41218;55.700;38.270;2022-08-19T19:59:20;100817.81;;;20.74;44.22
55347;BME280;41218;55.700;38.270;2022-08-19T20:04:23;100829.47;;;20.69;44.16
55347;BME280;41218;55.700;38.270;2022-08-19T20:09:27;100827.94;;;20.54;44.47
55347;BME280;41218;55.700;38.270;2022-08-19T20:14:30;100804.84;;;20.32;44.94
55347;BME280;41218;55.700;38.270;2022-08-19T20:19:32;100862.88;;;20.60;44.91
55347;BME280;41218;55.700;38.270;2022-08-19T20:24:36;100841.28;;;20.42;45.11
55347;BME280;41218;55.700;38.270;2022-08-19T20:29:38;100828.56;;;20.24;45.39
55347;BME280;41218;55.700;38.270;2022-08-19T20:34:42;100809.41;;;20.08;45.33
55347;BME280;41218;55.700;38.270;2022-08-19T20:39:49;100803.88;;;19.93;45.04
55347;BME280;41218;55.700;38.270;2022-08-19T20:44:57;100818.28;;;19.95;45.00
55347;BME280;41218;55.700;38.270;2022-08-19T20:49:57;100847.91;;;20.04;44.80
55347;BME280;41218;55.700;38.270;2022-08-19T20:54:59;100826.78;;;19.81;45.16
55347;BME280;41218;55.700;38.270;2022-08-19T21:00:00;100827.63;;;19.71;44.87
55347;BME280;41218;55.700;38.270;2022-08-19T21:05:07;100851.63;;;19.79;44.94
55347;BME280;41218;55.700;38.270;2022-08-19T21:10:20;100889.66;;;19.91;45.04
55347;BME280;41218;55.700;38.270;2022-08-19T21:15:26;100864.44;;;19.69;45.54
55347;BME280;41218;55.700;38.270;2022-08-19T21:44:39;100883.28;;;19.65;44.33
55347;BME280;41218;55.700;38.270;2022-08-19T21:49:48;100883.69;;;19.64;44.97
55347;BME280;41218;55.700;38.270;2022-08-19T21:54:57;100890.88;;;19.68;45.21
55347;BME280;41218;55.700;38.270;2022-08-19T21:59:58;100851.31;;;19.41;44.98
55347;BME280;41218;55.700;38.270;2022-08-19T22:05:32;100892.91;;;19.64;44.98
55347;BME280;41218;55.700;38.270;2022-08-19T22:10:43;100902.13;;;19.54;45.10
55347;BME280;41218;55.700;38.270;2022-08-19T22:15:47;100844.53;;;19.17;45.08
55347;BME280;41218;55.700;38.270;2022-08-19T22:20:58;100850.53;;;19.23;45.35
55347;BME280;41218;55.700;38.270;2022-08-19T22:26:04;100887.34;;;19.39;44.88
55347;BME280;41218;55.700;38.270;2022-08-19T22:31:32;100860.56;;;19.09;45.65
55347;BME280;41218;55.700;38.270;2022-08-19T22:36:46;100864.56;;;19.01;45.80
55347;BME280;41218;55.700;38.270;2022-08-19T22:41:55;100921.00;;;19.42;45.38
55347;BME280;41218;55.700;38.270;2022-08-19T22:47:06;100890.19;;;19.07;45.50
55347;BME280;41218;55.700;38.270;2022-08-19T22:52:15;100894.59;;;19.00;45.81
55347;BME280;41218;55.700;38.270;2022-08-19T22:57:20;100895.78;;;19.03;45.95
55347;BME280;41218;55.700;38.270;2022-08-19T23:02:27;100878.94;;;18.78;46.11
55347;BME280;41218;55.700;38.270;2022-08-19T23:07:28;100874.13;;;18.68;46.21
55347;BME280;41218;55.700;38.270;2022-08-19T23:12:32;100884.13;;;18.72;46.13
55347;BME280;41218;55.700;38.270;2022-08-19T23:17:33;100928.19;;;18.93;46.55
55347;BME280;41218;55.700;38.270;2022-08-19T23:22:37;100942.22;;;18.97;46.45
55347;BME280;41218;55.700;38.270;2022-08-19T23:27:52;100887.69;;;18.55;46.46
55347;BME280;41218;55.700;38.270;2022-08-19T23:33:22;100927.00;;;18.80;46.62
55347;BME280;41218;55.700;38.270;2022-08-19T23:38:36;100940.56;;;18.81;46.62
55347;BME280;41218;55.700;38.270;2022-08-19T23:43:45;100911.72;;;18.56;46.95
55347;BME280;41218;55.700;38.270;2022-08-19T23:48:59;100940.13;;;18.69;47.03
55347;BME280;41218;55.700;38.270;2022-08-19T23:54:02;100873.63;;;18.26;47.07
55347;BME280;41218;55.700;38.270;2022-08-19T23:59:03;100929.69;;;18.58;47.24
